sensor_id;sensor_type;location;lat;lon;timestamp;P1;durP1;ratioP1;P2;durP2;ratioP2
17818;SDS011;9034;50.284;19.310;2024-03-08T00:00:39;43.13;;;20.70;;
17818;SDS011;9034;50.284;19.310;2024-03-08T00:01:44;38.42;;;20.30;;
17818;SDS011;9034;50.284;19.310;2024-03-08T00:02:47;45.38;;;21.73;;
17818;SDS011;9034;50.284;19.310;2024-03-08T00:03:52;42.30;;;21.25;;
17818;SDS011;9034;50.284;19.310;2024-03-08T00:04:55;41.05;;;19.77;;
17818;SDS011;9034;50.284;19.310;2024-03-08T00:05:59;40.15;;;20.23;;
17818;SDS011;9034;50.284;19.310;2024-03-08T00:07:02;38.03;;;21.55;;
17818;SDS011;9034;50.284;19.310;2024-03-08T00:08:05;40.22;;;21.35;;
17818;SDS011;9034;50.284;19.310;2024-03-08T00:09:12;40.33;;;20.83;;
17818;SDS011;9034;50.284;19.310;2024-03-08T00:10:14;47.10;;;21.52;;
17818;SDS011;9034;50.284;19.310;2024-03-08T00:11:17;45.38;;;22.17;;
17818;SDS011;9034;50.284;19.310;2024-03-08T00:12:20;39.67;;;21.20;;
17818;SDS011;9034;50.284;19.310;2024-03-08T00:13:22;40.40;;;22.25;;
17818;SDS011;9034;50.284;19.310;2024-03-08T00:14:26;38.97;;;21.00;;
17818;SDS011;9034;50.284;19.310;2024-03-08T00:15:29;43.95;;;19.67;;
17818;SDS011;9034;50.284;19.310;2024-03-08T00:16:33;45.75;;;20.50;;
17818;SDS011;9034;50.284;19.310;2024-03-08T00:17:36;41.63;;;20.95;;
17818;SDS011;9034;50.284;19.310;2024-03-08T00:18:39;43.78;;;20.75;;
17818;SDS011;9034;50.284;19.310;2024-03-08T00:19:42;42.08;;;22.23;;
17818;SDS011;9034;50.284;19.310;2024-03-08T00:20:46;37.53;;;19.58;;
17818;SDS011;9034;50.284;19.310;2024-03-08T00:21:48;46.92;;;22.23;;
17818;SDS011;9034;50.284;19.310;2024-03-08T00:22:51;41.13;;;22.88;;
17818;SDS011;9034;50.284;19.310;2024-03-08T00:23:53;40.72;;;22.13;;
17818;SDS011;9034;50.284;19.310;2024-03-08T00:24:56;40.33;;;21.75;;
17818;SDS011;9034;50.284;19.310;2024-03-08T00:25:58;41.38;;;21.67;;
17818;SDS011;9034;50.284;19.310;2024-03-08T00:27:01;40.10;;;21.90;;
17818;SDS011;9034;50.284;19.310;2024-03-08T00:28:04;48.33;;;23.52;;
17818;SDS011;9034;50.284;19.310;2024-03-08T00:29:07;44.67;;;23.08;;
17818;SDS011;9034;50.284;19.310;2024-03-08T00:30:09;47.47;;;24.45;;
17818;SDS011;9034;50.284;19.310;2024-03-08T00:31:14;65.63;;;26.50;;
17818;SDS011;9034;50.284;19.310;2024-03-08T00:32:19;48.15;;;22.52;;
17818;SDS011;9034;50.284;19.310;2024-03-08T00:33:25;43.15;;;22.92;;
17818;SDS011;9034;50.284;19.310;2024-03-08T00:34:28;42.97;;;23.00;;
17818;SDS011;9034;50.284;19.310;2024-03-08T00:35:33;42.55;;;22.02;;
17818;SDS011;9034;50.284;19.310;2024-03-08T00:36:36;47.40;;;21.85;;
17818;SDS011;9034;50.284;19.310;2024-03-08T00:37:39;41.75;;;22.05;;
17818;SDS011;9034;50.284;19.310;2024-03-08T00:38:41;42.47;;;21.80;;
17818;SDS011;9034;50.284;19.310;2024-03-08T00:39:44;39.35;;;21.83;;
17818;SDS011;9034;50.284;19.310;2024-03-08T00:40:46;43.50;;;22.00;;
17818;SDS011;9034;50.284;19.310;2024-03-08T00:41:49;45.47;;;22.35;;
17818;SDS011;9034;50.284;19.310;2024-03-08T00:42:51;45.20;;;22.90;;
17818;SDS011;9034;50.284;19.310;2024-03-08T00:43:55;47.25;;;23.52;;
17818;SDS011;9034;50.284;19.310;2024-03-08T00:44:57;44.88;;;23.25;;
17818;SDS011;9034;50.284;19.310;2024-03-08T00:46:00;43.35;;;22.15;;
17818;SDS011;9034;50.284;19.310;2024-03-08T00:47:03;47.40;;;21.95;;
17818;SDS011;9034;50.284;19.310;2024-03-08T00:48:06;44.50;;;22.95;;
17818;SDS011;9034;50.284;19.310;2024-03-08T00:49:09;45.33;;;22.95;;
17818;SDS011;9034;50.284;19.310;2024-03-08T00:50:11;43.50;;;21.92;;
17818;SDS011;9034;50.284;19.310;2024-03-08T00:51:15;46.75;;;21.85;;
17818;SDS011;9034;50.284;19.310;2024-03-08T00:52:18;45.20;;;23.23;;
17818;SDS011;9034;50.284;19.310;2024-03-08T00:53:22;43.33;;;21.92;;
17818;SDS011;9034;50.284;19.310;2024-03-08T00:54:24;43.00;;;22.13;;
17818;SDS011;9034;50.284;19.310;2024-03-08T00:55:27;48.47;;;23.40;;
17818;SDS011;9034;50.284;19.310;2024-03-08T00:56:31;45.08;;;22.25;;
17818;SDS011;9034;50.284;19.310;2024-03-08T00:57:33;43.17;;;21.98;;
17818;SDS011;9034;50.284;19.310;2024-03-08T00:58:36;45.20;;;21.98;;
17818;SDS011;9034;50.284;19.310;2024-03-08T00:59:38;45.85;;;22.33;;
17818;SDS011;9034;50.284;19.310;2024-03-08T01:00:41;44.10;;;21.80;;
17818;SDS011;9034;50.284;19.310;2024-03-08T01:01:43;46.90;;;23.35;;
17818;SDS011;9034;50.284;19.310;2024-03-08T01:02:46;45.15;;;22.35;;
17818;SDS011;9034;50.284;19.310;2024-03-08T01:03:49;54.67;;;22.73;;
17818;SDS011;9034;50.284;19.310;2024-03-08T01:04:52;40.97;;;22.90;;
17818;SDS011;9034;50.284;19.310;2024-03-08T01:05:54;47.33;;;22.17;;
17818;SDS011;9034;50.284;19.310;2024-03-08T01:06:57;38.00;;;21.35;;
17818;SDS011;9034;50.284;19.310;2024-03-08T01:08:01;40.17;;;20.17;;
17818;SDS011;9034;50.284;19.310;2024-03-08T01:09:05;50.28;;;21.33;;
17818;SDS011;9034;50.284;19.310;2024-03-08T01:10:09;48.30;;;22.95;;
17818;SDS011;9034;50.284;19.310;2024-03-08T01:11:12;47.75;;;21.85;;
17818;SDS011;9034;50.284;19.310;2024-03-08T01:12:15;43.40;;;21.58;;
17818;SDS011;9034;50.284;19.310;2024-03-08T01:13:18;49.53;;;22.40;;
17818;SDS011;9034;50.284;19.310;2024-03-08T01:14:20;44.25;;;21.02;;
17818;SDS011;9034;50.284;19.310;2024-03-08T01:15:24;45.20;;;22.48;;
17818;SDS011;9034;50.284;19.310;2024-03-08T01:16:27;47.40;;;22.00;;
17818;SDS011;9034;50.284;19.310;2024-03-08T01:17:29;45.33;;;22.08;;
17818;SDS011;9034;50.284;19.310;2024-03-08T01:18:33;42.08;;;21.23;;
17818;SDS011;9034;50.284;19.310;2024-03-08T01:19:36;42.25;;;20.80;;
17818;SDS011;9034;50.284;19.310;2024-03-08T01:20:38;51.80;;;22.70;;
17818;SDS011;9034;50.284;19.310;2024-03-08T01:21:43;47.30;;;22.48;;
17818;SDS011;9034;50.284;19.310;2024-03-08T01:22:45;41.97;;;20.33;;
17818;SDS011;9034;50.284;19.310;2024-03-08T01:23:49;40.58;;;21.42;;
17818;SDS011;9034;50.284;19.310;2024-03-08T01:24:51;46.25;;;22.20;;
17818;SDS011;9034;50.284;19.310;2024-03-08T01:25:55;44.75;;;22.30;;
17818;SDS011;9034;50.284;19.310;2024-03-08T01:26:58;42.67;;;21.17;;
17818;SDS011;9034;50.284;19.310;2024-03-08T01:28:01;42.30;;;22.35;;
17818;SDS011;9034;50.284;19.310;2024-03-08T01:29:04;46.83;;;22.42;;
17818;SDS011;9034;50.284;19.310;2024-03-08T01:30:06;44.97;;;21.52;;
17818;SDS011;9034;50.284;19.310;2024-03-08T01:31:11;46.60;;;21.30;;
17818;SDS011;9034;50.284;19.310;2024-03-08T01:32:13;40.55;;;20.63;;
17818;SDS011;9034;50.284;19.310;2024-03-08T01:33:16;36.20;;;19.50;;
17818;SDS011;9034;50.284;19.310;2024-03-08T01:34:19;38.70;;;19.95;;
17818;SDS011;9034;50.284;19.310;2024-03-08T01:35:21;39.63;;;21.30;;
17818;SDS011;9034;50.284;19.310;2024-03-08T01:36:24;39.65;;;20.45;;
17818;SDS011;9034;50.284;19.310;2024-03-08T01:37:26;39.58;;;19.92;;
17818;SDS011;9034;50.284;19.310;2024-03-08T01:38:31;40.90;;;20.05;;
17818;SDS011;9034;50.284;19.310;2024-03-08T01:39:34;40.05;;;20.25;;
17818;SDS011;9034;50.284;19.310;2024-03-08T01:40:37;46.13;;;21.83;;
17818;SDS011;9034;50.284;19.310;2024-03-08T01:41:39;37.25;;;19.95;;
17818;SDS011;9034;50.284;19.310;2024-03-08T01:42:42;38.13;;;20.50;;
17818;SDS011;9034;50.284;19.310;2024-03-08T01:43:44;36.72;;;20.27;;
17818;SDS011;9034;50.284;19.310;2024-03-08T01:45:06;35.85;;;19.50;;
17818;SDS011;9034;50.284;19.310;2024-03-08T01:46:09;38.47;;;19.13;;
17818;SDS011;9034;50.284;19.310;2024-03-08T01:47:14;39.60;;;20.77;;
17818;SDS011;9034;50.284;19.310;2024-03-08T01:48:16;34.80;;;19.45;;
17818;SDS011;9034;50.284;19.310;2024-03-08T01:49:20;40.20;;;19.45;;
17818;SDS011;9034;50.284;19.310;2024-03-08T01:50:23;39.83;;;19.38;;
17818;SDS011;9034;50.284;19.310;2024-03-08T01:51:26;41.95;;;19.92;;
17818;SDS011;9034;50.284;19.310;2024-03-08T01:52:29;38.22;;;18.90;;
17818;SDS011;9034;50.284;19.310;2024-03-08T01:53:33;36.78;;;19.17;;
17818;SDS011;9034;50.284;19.310;2024-03-08T01:54:37;40.70;;;18.42;;
17818;SDS011;9034;50.284;19.310;2024-03-08T01:55:42;41.38;;;21.20;;
17818;SDS011;9034;50.284;19.310;2024-03-08T01:56:46;35.10;;;19.92;;
17818;SDS011;9034;50.284;19.310;2024-03-08T01:57:50;40.03;;;19.90;;
17818;SDS011;9034;50.284;19.310;2024-03-08T01:58:52;40.00;;;20.45;;
17818;SDS011;9034;50.284;19.310;2024-03-08T01:59:55;38.97;;;19.15;;
17818;SDS011;9034;50.284;19.310;2024-03-08T02:00:57;37.30;;;20.10;;
17818;SDS011;9034;50.284;19.310;2024-03-08T02:02:01;37.45;;;20.48;;
17818;SDS011;9034;50.284;19.310;2024-03-08T02:03:04;38.00;;;20.40;;
17818;SDS011;9034;50.284;19.310;2024-03-08T02:04:07;37.58;;;20.30;;
17818;SDS011;9034;50.284;19.310;2024-03-08T02:05:09;42.28;;;20.10;;
17818;SDS011;9034;50.284;19.310;2024-03-08T02:06:12;43.20;;;21.08;;
17818;SDS011;9034;50.284;19.310;2024-03-08T02:07:16;35.00;;;19.55;;
17818;SDS011;9034;50.284;19.310;2024-03-08T02:08:19;34.22;;;20.63;;
17818;SDS011;9034;50.284;19.310;2024-03-08T02:09:24;37.25;;;19.83;;
17818;SDS011;9034;50.284;19.310;2024-03-08T02:10:28;41.35;;;20.30;;
17818;SDS011;9034;50.284;19.310;2024-03-08T02:11:30;33.70;;;19.00;;
17818;SDS011;9034;50.284;19.310;2024-03-08T02:12:34;35.72;;;19.45;;
17818;SDS011;9034;50.284;19.310;2024-03-08T02:13:36;43.88;;;19.80;;
17818;SDS011;9034;50.284;19.310;2024-03-08T02:14:39;37.83;;;20.40;;
17818;SDS011;9034;50.284;19.310;2024-03-08T02:15:54;41.08;;;20.13;;
17818;SDS011;9034;50.284;19.310;2024-03-08T02:16:59;39.38;;;20.30;;
17818;SDS011;9034;50.284;19.310;2024-03-08T02:18:02;36.53;;;20.50;;
17818;SDS011;9034;50.284;19.310;2024-03-08T02:19:06;35.65;;;20.13;;
17818;SDS011;9034;50.284;19.310;2024-03-08T02:20:11;39.17;;;21.25;;
17818;SDS011;9034;50.284;19.310;2024-03-08T02:21:17;37.97;;;20.92;;
17818;SDS011;9034;50.284;19.310;2024-03-08T02:22:20;36.65;;;20.85;;
17818;SDS011;9034;50.284;19.310;2024-03-08T02:23:22;35.28;;;19.92;;
17818;SDS011;9034;50.284;19.310;2024-03-08T02:24:26;37.47;;;22.35;;
17818;SDS011;9034;50.284;19.310;2024-03-08T02:25:28;33.65;;;20.35;;
17818;SDS011;9034;50.284;19.310;2024-03-08T02:26:30;38.72;;;21.10;;
17818;SDS011;9034;50.284;19.310;2024-03-08T02:27:33;37.25;;;20.73;;
17818;SDS011;9034;50.284;19.310;2024-03-08T02:28:35;39.15;;;21.52;;
17818;SDS011;9034;50.284;19.310;2024-03-08T02:29:38;36.53;;;22.05;;
17818;SDS011;9034;50.284;19.310;2024-03-08T02:30:42;37.70;;;20.98;;
17818;SDS011;9034;50.284;19.310;2024-03-08T02:31:45;34.25;;;20.42;;
17818;SDS011;9034;50.284;19.310;2024-03-08T02:32:47;36.40;;;20.23;;
17818;SDS011;9034;50.284;19.310;2024-03-08T02:33:50;39.25;;;20.33;;
17818;SDS011;9034;50.284;19.310;2024-03-08T02:34:55;37.63;;;21.08;;
17818;SDS011;9034;50.284;19.310;2024-03-08T02:36:01;33.08;;;19.50;;
17818;SDS011;9034;50.284;19.310;2024-03-08T02:37:05;39.03;;;20.48;;
17818;SDS011;9034;50.284;19.310;2024-03-08T02:38:10;37.92;;;20.85;;
17818;SDS011;9034;50.284;19.310;2024-03-08T02:39:12;39.33;;;20.63;;
17818;SDS011;9034;50.284;19.310;2024-03-08T02:40:15;35.63;;;20.67;;
17818;SDS011;9034;50.284;19.310;2024-03-08T02:41:17;36.10;;;20.65;;
17818;SDS011;9034;50.284;19.310;2024-03-08T02:42:20;34.90;;;19.70;;
17818;SDS011;9034;50.284;19.310;2024-03-08T02:43:22;33.05;;;19.67;;
17818;SDS011;9034;50.284;19.310;2024-03-08T02:44:26;34.58;;;19.65;;
17818;SDS011;9034;50.284;19.310;2024-03-08T02:45:29;34.80;;;19.20;;
17818;SDS011;9034;50.284;19.310;2024-03-08T02:46:31;32.30;;;19.00;;
17818;SDS011;9034;50.284;19.310;2024-03-08T02:47:34;32.13;;;19.70;;
17818;SDS011;9034;50.284;19.310;2024-03-08T02:48:36;33.30;;;19.65;;
17818;SDS011;9034;50.284;19.310;2024-03-08T02:49:41;35.47;;;20.60;;
17818;SDS011;9034;50.284;19.310;2024-03-08T02:50:43;33.80;;;20.63;;
17818;SDS011;9034;50.284;19.310;2024-03-08T02:51:47;38.22;;;20.20;;
17818;SDS011;9034;50.284;19.310;2024-03-08T02:52:51;34.67;;;20.23;;
17818;SDS011;9034;50.284;19.310;2024-03-08T02:53:53;36.58;;;20.00;;
17818;SDS011;9034;50.284;19.310;2024-03-08T02:54:56;35.22;;;20.48;;
17818;SDS011;9034;50.284;19.310;2024-03-08T02:55:58;34.42;;;21.00;;
17818;SDS011;9034;50.284;19.310;2024-03-08T02:57:01;34.97;;;20.20;;
17818;SDS011;9034;50.284;19.310;2024-03-08T02:58:04;35.63;;;20.52;;
17818;SDS011;9034;50.284;19.310;2024-03-08T02:59:10;35.72;;;20.33;;
17818;SDS011;9034;50.284;19.310;2024-03-08T03:00:12;35.33;;;20.33;;
17818;SDS011;9034;50.284;19.310;2024-03-08T03:01:17;36.80;;;20.80;;
17818;SDS011;9034;50.284;19.310;2024-03-08T03:02:22;34.03;;;19.95;;
17818;SDS011;9034;50.284;19.310;2024-03-08T03:03:25;34.00;;;20.40;;
17818;SDS011;9034;50.284;19.310;2024-03-08T03:04:28;34.15;;;19.98;;
17818;SDS011;9034;50.284;19.310;2024-03-08T03:05:31;33.72;;;19.90;;
17818;SDS011;9034;50.284;19.310;2024-03-08T03:06:33;32.33;;;19.95;;
17818;SDS011;9034;50.284;19.310;2024-03-08T03:07:37;35.95;;;19.63;;
17818;SDS011;9034;50.284;19.310;2024-03-08T03:08:40;31.75;;;19.75;;
17818;SDS011;9034;50.284;19.310;2024-03-08T03:09:45;33.72;;;20.30;;
17818;SDS011;9034;50.284;19.310;2024-03-08T03:10:47;33.97;;;20.63;;
17818;SDS011;9034;50.284;19.310;2024-03-08T03:11:50;33.72;;;21.25;;
17818;SDS011;9034;50.284;19.310;2024-03-08T03:12:53;32.30;;;20.50;;
17818;SDS011;9034;50.284;19.310;2024-03-08T03:13:56;35.83;;;20.25;;
17818;SDS011;9034;50.284;19.310;2024-03-08T03:14:58;34.58;;;20.70;;
17818;SDS011;9034;50.284;19.310;2024-03-08T03:16:01;31.20;;;20.25;;
17818;SDS011;9034;50.284;19.310;2024-03-08T03:17:05;31.60;;;19.77;;
17818;SDS011;9034;50.284;19.310;2024-03-08T03:18:08;33.22;;;19.70;;
17818;SDS011;9034;50.284;19.310;2024-03-08T03:19:10;33.28;;;20.38;;
17818;SDS011;9034;50.284;19.310;2024-03-08T03:20:14;33.97;;;20.08;;
17818;SDS011;9034;50.284;19.310;2024-03-08T03:21:16;31.77;;;20.05;;
17818;SDS011;9034;50.284;19.310;2024-03-08T03:22:19;35.00;;;20.38;;
17818;SDS011;9034;50.284;19.310;2024-03-08T03:23:21;35.92;;;20.45;;
17818;SDS011;9034;50.284;19.310;2024-03-08T03:24:26;31.90;;;19.38;;
17818;SDS011;9034;50.284;19.310;2024-03-08T03:25:31;31.23;;;19.02;;
17818;SDS011;9034;50.284;19.310;2024-03-08T03:26:37;34.67;;;20.20;;
17818;SDS011;9034;50.284;19.310;2024-03-08T03:27:40;31.63;;;20.27;;
17818;SDS011;9034;50.284;19.310;2024-03-08T03:28:43;33.03;;;19.92;;
17818;SDS011;9034;50.284;19.310;2024-03-08T03:29:45;27.55;;;18.67;;
17818;SDS011;9034;50.284;19.310;2024-03-08T03:30:48;33.08;;;19.77;;
17818;SDS011;9034;50.284;19.310;2024-03-08T03:31:50;30.00;;;18.33;;
17818;SDS011;9034;50.284;19.310;2024-03-08T03:32:54;31.35;;;20.02;;
17818;SDS011;9034;50.284;19.310;2024-03-08T03:33:58;31.90;;;19.83;;
17818;SDS011;9034;50.284;19.310;2024-03-08T03:35:03;34.65;;;19.88;;
17818;SDS011;9034;50.284;19.310;2024-03-08T03:36:07;30.05;;;19.15;;
17818;SDS011;9034;50.284;19.310;2024-03-08T03:37:11;30.63;;;19.55;;
17818;SDS011;9034;50.284;19.310;2024-03-08T03:38:14;32.75;;;20.13;;
17818;SDS011;9034;50.284;19.310;2024-03-08T03:39:17;31.33;;;19.80;;
17818;SDS011;9034;50.284;19.310;2024-03-08T03:40:22;34.05;;;19.90;;
17818;SDS011;9034;50.284;19.310;2024-03-08T03:41:26;31.30;;;19.23;;
17818;SDS011;9034;50.284;19.310;2024-03-08T03:42:30;30.70;;;18.83;;
17818;SDS011;9034;50.284;19.310;2024-03-08T03:43:32;28.92;;;18.33;;
17818;SDS011;9034;50.284;19.310;2024-03-08T03:44:35;33.03;;;18.73;;
17818;SDS011;9034;50.284;19.310;2024-03-08T03:45:37;30.52;;;17.80;;
17818;SDS011;9034;50.284;19.310;2024-03-08T03:46:43;31.48;;;18.83;;
17818;SDS011;9034;50.284;19.310;2024-03-08T03:47:45;31.83;;;18.98;;
17818;SDS011;9034;50.284;19.310;2024-03-08T03:48:47;32.08;;;19.50;;
17818;SDS011;9034;50.284;19.310;2024-03-08T03:49:50;28.80;;;18.73;;
17818;SDS011;9034;50.284;19.310;2024-03-08T03:50:54;36.45;;;18.92;;
17818;SDS011;9034;50.284;19.310;2024-03-08T03:51:57;34.70;;;19.52;;
17818;SDS011;9034;50.284;19.310;2024-03-08T03:52:59;33.92;;;19.30;;
17818;SDS011;9034;50.284;19.310;2024-03-08T03:54:03;30.38;;;18.27;;
17818;SDS011;9034;50.284;19.310;2024-03-08T03:55:05;30.80;;;19.25;;
17818;SDS011;9034;50.284;19.310;2024-03-08T03:56:11;30.17;;;19.27;;
17818;SDS011;9034;50.284;19.310;2024-03-08T03:57:13;29.95;;;18.80;;
17818;SDS011;9034;50.284;19.310;2024-03-08T03:58:16;31.08;;;19.63;;
17818;SDS011;9034;50.284;19.310;2024-03-08T03:59:23;28.65;;;18.23;;
17818;SDS011;9034;50.284;19.310;2024-03-08T04:00:27;31.13;;;18.63;;
17818;SDS011;9034;50.284;19.310;2024-03-08T04:01:29;28.25;;;18.33;;
17818;SDS011;9034;50.284;19.310;2024-03-08T04:02:32;27.98;;;18.15;;
17818;SDS011;9034;50.284;19.310;2024-03-08T04:03:34;30.08;;;18.30;;
17818;SDS011;9034;50.284;19.310;2024-03-08T04:04:37;31.35;;;18.65;;
17818;SDS011;9034;50.284;19.310;2024-03-08T04:05:39;29.30;;;18.08;;
17818;SDS011;9034;50.284;19.310;2024-03-08T04:06:42;30.83;;;18.20;;
17818;SDS011;9034;50.284;19.310;2024-03-08T04:07:46;28.17;;;18.42;;
17818;SDS011;9034;50.284;19.310;2024-03-08T04:08:49;28.95;;;18.17;;
17818;SDS011;9034;50.284;19.310;2024-03-08T04:09:51;29.48;;;17.95;;
17818;SDS011;9034;50.284;19.310;2024-03-08T04:10:54;26.45;;;17.13;;
17818;SDS011;9034;50.284;19.310;2024-03-08T04:11:57;27.02;;;17.77;;
17818;SDS011;9034;50.284;19.310;2024-03-08T04:13:03;26.67;;;17.38;;
17818;SDS011;9034;50.284;19.310;2024-03-08T04:14:05;27.75;;;17.60;;
17818;SDS011;9034;50.284;19.310;2024-03-08T04:15:09;24.90;;;17.10;;
17818;SDS011;9034;50.284;19.310;2024-03-08T04:16:13;24.38;;;16.38;;
17818;SDS011;9034;50.284;19.310;2024-03-08T04:17:16;26.02;;;16.27;;
17818;SDS011;9034;50.284;19.310;2024-03-08T04:18:19;27.30;;;16.05;;
17818;SDS011;9034;50.284;19.310;2024-03-08T04:19:23;26.40;;;17.50;;
17818;SDS011;9034;50.284;19.310;2024-03-08T04:20:26;26.38;;;15.80;;
17818;SDS011;9034;50.284;19.310;2024-03-08T04:21:29;25.05;;;15.90;;
17818;SDS011;9034;50.284;19.310;2024-03-08T04:22:31;27.33;;;16.77;;
17818;SDS011;9034;50.284;19.310;2024-03-08T04:23:36;24.42;;;15.88;;
17818;SDS011;9034;50.284;19.310;2024-03-08T04:24:38;26.90;;;16.70;;
17818;SDS011;9034;50.284;19.310;2024-03-08T04:25:42;25.50;;;15.85;;
17818;SDS011;9034;50.284;19.310;2024-03-08T04:26:45;26.90;;;16.13;;
17818;SDS011;9034;50.284;19.310;2024-03-08T04:27:50;29.08;;;16.67;;
17818;SDS011;9034;50.284;19.310;2024-03-08T04:28:53;26.90;;;17.35;;
17818;SDS011;9034;50.284;19.310;2024-03-08T04:29:57;25.35;;;16.90;;
17818;SDS011;9034;50.284;19.310;2024-03-08T04:30:59;22.65;;;15.88;;
17818;SDS011;9034;50.284;19.310;2024-03-08T04:32:03;25.90;;;16.67;;
17818;SDS011;9034;50.284;19.310;2024-03-08T04:33:05;24.35;;;16.35;;
17818;SDS011;9034;50.284;19.310;2024-03-08T04:34:10;24.02;;;16.48;;
17818;SDS011;9034;50.284;19.310;2024-03-08T04:35:12;27.70;;;17.45;;
17818;SDS011;9034;50.284;19.310;2024-03-08T04:36:17;22.55;;;16.10;;
17818;SDS011;9034;50.284;19.310;2024-03-08T04:37:19;26.15;;;16.30;;
17818;SDS011;9034;50.284;19.310;2024-03-08T04:38:23;23.38;;;16.17;;
17818;SDS011;9034;50.284;19.310;2024-03-08T04:39:26;26.67;;;17.33;;
17818;SDS011;9034;50.284;19.310;2024-03-08T04:40:29;23.00;;;16.48;;
17818;SDS011;9034;50.284;19.310;2024-03-08T04:41:32;23.85;;;15.95;;
17818;SDS011;9034;50.284;19.310;2024-03-08T04:42:36;23.35;;;15.05;;
17818;SDS011;9034;50.284;19.310;2024-03-08T04:43:40;23.75;;;16.35;;
17818;SDS011;9034;50.284;19.310;2024-03-08T04:44:43;22.42;;;15.75;;
17818;SDS011;9034;50.284;19.310;2024-03-08T04:45:45;44.13;;;17.35;;
17818;SDS011;9034;50.284;19.310;2024-03-08T04:46:48;25.83;;;15.82;;
17818;SDS011;9034;50.284;19.310;2024-03-08T04:47:50;34.13;;;16.10;;
17818;SDS011;9034;50.284;19.310;2024-03-08T04:48:54;27.13;;;15.15;;
17818;SDS011;9034;50.284;19.310;2024-03-08T04:49:56;24.02;;;15.30;;
17818;SDS011;9034;50.284;19.310;2024-03-08T04:50:59;24.30;;;15.13;;
17818;SDS011;9034;50.284;19.310;2024-03-08T04:52:02;22.13;;;15.05;;
17818;SDS011;9034;50.284;19.310;2024-03-08T04:53:05;20.95;;;15.13;;
17818;SDS011;9034;50.284;19.310;2024-03-08T04:54:09;19.88;;;13.65;;
17818;SDS011;9034;50.284;19.310;2024-03-08T04:55:12;24.80;;;15.00;;
17818;SDS011;9034;50.284;19.310;2024-03-08T04:56:14;25.73;;;15.77;;
17818;SDS011;9034;50.284;19.310;2024-03-08T04:57:17;23.50;;;14.80;;
17818;SDS011;9034;50.284;19.310;2024-03-08T04:58:21;22.05;;;14.70;;
17818;SDS011;9034;50.284;19.310;2024-03-08T04:59:25;22.63;;;14.90;;
17818;SDS011;9034;50.284;19.310;2024-03-08T05:00:27;24.02;;;15.23;;
17818;SDS011;9034;50.284;19.310;2024-03-08T05:01:30;27.50;;;15.35;;
17818;SDS011;9034;50.284;19.310;2024-03-08T05:02:32;20.98;;;14.40;;
17818;SDS011;9034;50.284;19.310;2024-03-08T05:03:34;21.10;;;14.02;;
17818;SDS011;9034;50.284;19.310;2024-03-08T05:04:37;19.83;;;14.13;;
17818;SDS011;9034;50.284;19.310;2024-03-08T05:05:39;25.30;;;15.43;;
17818;SDS011;9034;50.284;19.310;2024-03-08T05:06:42;21.17;;;14.23;;
17818;SDS011;9034;50.284;19.310;2024-03-08T05:07:44;23.55;;;14.98;;
17818;SDS011;9034;50.284;19.310;2024-03-08T05:08:47;21.50;;;14.20;;
17818;SDS011;9034;50.284;19.310;2024-03-08T05:09:49;21.77;;;14.95;;
17818;SDS011;9034;50.284;19.310;2024-03-08T05:10:54;22.67;;;14.40;;
17818;SDS011;9034;50.284;19.310;2024-03-08T05:11:56;23.63;;;15.38;;
17818;SDS011;9034;50.284;19.310;2024-03-08T05:13:00;22.20;;;15.35;;
17818;SDS011;9034;50.284;19.310;2024-03-08T05:14:02;21.55;;;14.13;;
17818;SDS011;9034;50.284;19.310;2024-03-08T05:15:07;23.75;;;14.85;;
17818;SDS011;9034;50.284;19.310;2024-03-08T05:16:14;22.23;;;15.00;;
17818;SDS011;9034;50.284;19.310;2024-03-08T05:17:17;21.92;;;14.68;;
17818;SDS011;9034;50.284;19.310;2024-03-08T05:18:19;20.60;;;14.68;;
17818;SDS011;9034;50.284;19.310;2024-03-08T05:19:23;23.95;;;15.30;;
17818;SDS011;9034;50.284;19.310;2024-03-08T05:20:26;22.77;;;13.65;;
17818;SDS011;9034;50.284;19.310;2024-03-08T05:21:29;23.42;;;14.20;;
17818;SDS011;9034;50.284;19.310;2024-03-08T05:22:30;22.98;;;14.88;;
17818;SDS011;9034;50.284;19.310;2024-03-08T05:23:33;21.25;;;14.48;;
17818;SDS011;9034;50.284;19.310;2024-03-08T05:24:36;21.63;;;14.60;;
17818;SDS011;9034;50.284;19.310;2024-03-08T05:25:39;20.08;;;13.90;;
17818;SDS011;9034;50.284;19.310;2024-03-08T05:26:41;26.67;;;15.40;;
17818;SDS011;9034;50.284;19.310;2024-03-08T05:27:44;20.15;;;13.23;;
17818;SDS011;9034;50.284;19.310;2024-03-08T05:28:46;24.10;;;15.05;;
17818;SDS011;9034;50.284;19.310;2024-03-08T05:29:50;21.20;;;14.93;;
17818;SDS011;9034;50.284;19.310;2024-03-08T05:30:53;19.05;;;13.15;;
17818;SDS011;9034;50.284;19.310;2024-03-08T05:31:58;23.17;;;14.95;;
17818;SDS011;9034;50.284;19.310;2024-03-08T05:33:01;20.48;;;13.88;;
17818;SDS011;9034;50.284;19.310;2024-03-08T05:34:03;21.85;;;15.23;;
17818;SDS011;9034;50.284;19.310;2024-03-08T05:35:06;21.67;;;15.05;;
17818;SDS011;9034;50.284;19.310;2024-03-08T05:36:09;70.57;;;21.05;;
17818;SDS011;9034;50.284;19.310;2024-03-08T05:37:13;22.15;;;15.07;;
17818;SDS011;9034;50.284;19.310;2024-03-08T05:38:15;24.30;;;15.43;;
17818;SDS011;9034;50.284;19.310;2024-03-08T05:39:18;21.70;;;15.45;;
17818;SDS011;9034;50.284;19.310;2024-03-08T05:40:21;24.70;;;15.70;;
17818;SDS011;9034;50.284;19.310;2024-03-08T05:41:24;22.17;;;14.82;;
17818;SDS011;9034;50.284;19.310;2024-03-08T05:42:27;26.55;;;15.05;;
17818;SDS011;9034;50.284;19.310;2024-03-08T05:43:30;26.50;;;16.08;;
17818;SDS011;9034;50.284;19.310;2024-03-08T05:44:32;25.60;;;15.23;;
17818;SDS011;9034;50.284;19.310;2024-03-08T05:45:35;26.23;;;15.10;;
17818;SDS011;9034;50.284;19.310;2024-03-08T05:46:39;20.70;;;14.57;;
17818;SDS011;9034;50.284;19.310;2024-03-08T05:47:41;20.90;;;14.05;;
17818;SDS011;9034;50.284;19.310;2024-03-08T05:48:45;22.75;;;14.38;;
17818;SDS011;9034;50.284;19.310;2024-03-08T05:49:47;24.73;;;15.93;;
17818;SDS011;9034;50.284;19.310;2024-03-08T05:50:50;24.60;;;16.42;;
17818;SDS011;9034;50.284;19.310;2024-03-08T05:51:52;29.45;;;17.25;;
17818;SDS011;9034;50.284;19.310;2024-03-08T05:52:55;23.60;;;16.33;;
17818;SDS011;9034;50.284;19.310;2024-03-08T05:53:58;26.02;;;16.35;;
17818;SDS011;9034;50.284;19.310;2024-03-08T05:55:03;23.02;;;15.02;;
17818;SDS011;9034;50.284;19.310;2024-03-08T05:56:08;24.42;;;15.65;;
17818;SDS011;9034;50.284;19.310;2024-03-08T05:57:12;24.10;;;14.93;;
17818;SDS011;9034;50.284;19.310;2024-03-08T05:58:15;21.02;;;13.98;;
17818;SDS011;9034;50.284;19.310;2024-03-08T05:59:18;23.15;;;14.77;;
17818;SDS011;9034;50.284;19.310;2024-03-08T06:00:20;21.50;;;14.50;;
17818;SDS011;9034;50.284;19.310;2024-03-08T06:01:24;23.20;;;15.18;;
17818;SDS011;9034;50.284;19.310;2024-03-08T06:02:27;21.30;;;15.02;;
17818;SDS011;9034;50.284;19.310;2024-03-08T06:03:30;20.92;;;13.57;;
17818;SDS011;9034;50.284;19.310;2024-03-08T06:04:32;20.35;;;14.30;;
17818;SDS011;9034;50.284;19.310;2024-03-08T06:05:34;20.80;;;14.35;;
17818;SDS011;9034;50.284;19.310;2024-03-08T06:06:37;23.38;;;14.75;;
17818;SDS011;9034;50.284;19.310;2024-03-08T06:07:39;28.90;;;16.02;;
17818;SDS011;9034;50.284;19.310;2024-03-08T06:08:42;25.65;;;15.70;;
17818;SDS011;9034;50.284;19.310;2024-03-08T06:09:45;23.48;;;15.85;;